Time;durP1;ratioP1;P1;durP2;ratioP2;P2;SDS_P1;SDS_P2;PMS_P1;PMS_P2;Temp;Humidity;BMP_temperature;BMP_pressure;BME280_temperature;BME280_humidity;BME280_pressure;Samples;Min_cycle;Max_cycle;Signal;HPM_P1;HPM_P2
2022/03/19 00:19:02;;;;;;;;;;;;;;;;;;;;;
2022/03/19 00:36:41;;;;;;;;;;;;;;;;;;;;;
2022/03/19 00:40:56;;;;;;;70.47;31.30;;;;;;;;;;5093770;28;20039;-85
2022/03/19 00:57:49;;;;;;;37.92;18.92;;;;;;;;;;4998491;28;20046;-85
2022/03/19 01:01:02;;;;;;;46.42;21.75;;;;;;;;;;5026634;28;20052;-86
2022/03/19 01:03:47;;;;;;;58.90;23.00;;;;;;;;;;5078493;28;20047;-85
2022/03/19 01:11:34;;;;;;;;;;;;;;;;;;;;;
2022/03/19 01:15:34;;;;;;;146.02;43.70;;;;;;;;;;5093362;28;20389;-84
2022/03/19 01:20:01;;;;;;;145.52;45.83;;;;;;;;;;5002579;28;20042;-84
2022/03/19 04:02:26;;;;;;;15.75;8.13;;;;;;;;;;5456298;23;20057;-82
2022/03/19 04:05:11;;;;;;;22.38;10.00;;;;;;;;;;4843697;29;20050;-82
2022/03/19 04:07:57;;;;;;;24.85;12.30;;;;;;;;;;4849369;29;20050;-80
2022/03/19 04:10:42;;;;;;;22.00;10.48;;;;;;;;;;4843890;29;20045;-81
2022/03/19 04:13:28;;;;;;;21.73;11.43;;;;;;;;;;4848521;29;20492;-81
2022/03/19 04:16:13;;;;;;;24.73;12.48;;;;;;;;;;4843464;29;20046;-81
2022/03/19 04:18:58;;;;;;;39.03;15.02;;;;;;;;;;4843615;29;20053;-81
2022/03/19 04:21:43;;;;;;;30.52;14.50;;;;;;;;;;4843389;29;20053;-81
2022/03/19 04:24:29;;;;;;;28.40;13.60;;;;;;;;;;4843559;29;20058;-81
2022/03/19 04:27:15;;;;;;;32.42;16.00;;;;;;;;;;4849453;29;20054;-81
2022/03/19 04:30:00;;;;;;;28.80;14.93;;;;;;;;;;4843229;29;20054;-81
2022/03/19 04:32:50;;;;;;;29.02;15.13;;;;;;;;;;4843144;29;20049;-82
2022/03/19 04:38:40;;;;;;;29.42;15.80;;;;;;;;;;4843174;29;20050;-81
2022/03/19 04:41:26;;;;;;;32.33;15.23;;;;;;;;;;4843124;29;20053;-82
2022/03/19 04:44:13;;;;;;;31.80;15.07;;;;;;;;;;4843295;29;20476;-82
2022/03/19 04:46:58;;;;;;;35.85;17.27;;;;;;;;;;4849368;29;20046;-82
2022/03/19 04:49:43;;;;;;;34.88;17.13;;;;;;;;;;4843819;29;20050;-83
2022/03/19 04:52:29;;;;;;;35.88;17.05;;;;;;;;;;4843133;29;20050;-82
2022/03/19 04:55:15;;;;;;;35.72;17.02;;;;;;;;;;4842807;29;20400;-83
2022/03/19 04:58:01;;;;;;;37.22;16.05;;;;;;;;;;4843653;29;20046;-82
2022/03/19 05:00:48;;;;;;;28.88;15.50;;;;;;;;;;4846464;29;20053;-85
2022/03/19 05:03:34;;;;;;;27.10;14.32;;;;;;;;;;4845862;29;20050;-83
2022/03/19 05:06:21;;;;;;;34.42;13.95;;;;;;;;;;4845272;29;20046;-83
2022/03/19 05:12:41;;;;;;;53.90;19.00;;;;;;;;;;4780895;30;20048;-83
2022/03/19 05:15:26;;;;;;;42.75;17.73;;;;;;;;;;4841274;29;20041;-82
2022/03/19 05:18:12;;;;;;;46.38;19.48;;;;;;;;;;4846728;29;20057;-84
2022/03/19 05:20:58;;;;;;;53.78;24.60;;;;;;;;;;4847026;29;20408;-83
2022/03/19 05:23:45;;;;;;;56.40;25.98;;;;;;;;;;4846454;29;20046;-83
2022/03/19 05:26:30;;;;;;;71.55;30.77;;;;;;;;;;4845970;29;20038;-83
2022/03/19 05:29:15;;;;;;;90.47;39.13;;;;;;;;;;4851513;29;20045;-83
2022/03/19 05:32:02;;;;;;;88.40;40.75;;;;;;;;;;4844934;29;20057;-86
2022/03/19 05:34:48;;;;;;;102.50;44.60;;;;;;;;;;4850876;29;20054;-83
2022/03/19 05:37:34;;;;;;;97.80;45.28;;;;;;;;;;4855505;29;20366;-85
2022/03/19 05:40:20;;;;;;;85.38;40.83;;;;;;;;;;4846003;29;20061;-84
2022/03/19 05:43:05;;;;;;;80.38;38.33;;;;;;;;;;4846190;29;20395;-84
2022/03/19 05:45:50;;;;;;;73.43;33.67;;;;;;;;;;4851602;29;20054;-84
2022/03/19 05:48:36;;;;;;;59.65;25.77;;;;;;;;;;4846225;29;20400;-84
2022/03/19 05:51:22;;;;;;;62.47;26.60;;;;;;;;;;4845923;29;20042;-84
2022/03/19 05:54:11;;;;;;;59.85;25.25;;;;;;;;;;4845949;29;20046;-84
2022/03/19 05:57:00;;;;;;;58.58;26.10;;;;;;;;;;4844748;29;20042;-85
2022/03/19 05:59:45;;;;;;;58.40;26.23;;;;;;;;;;4837606;29;20476;-86
2022/03/19 06:02:31;;;;;;;49.75;25.40;;;;;;;;;;4830035;29;20050;-86
2022/03/19 06:05:17;;;;;;;51.80;23.98;;;;;;;;;;4832440;29;20408;-86
2022/03/19 06:08:04;;;;;;;43.88;23.05;;;;;;;;;;4826165;29;20042;-85
2022/03/19 06:10:49;;;;;;;43.22;23.63;;;;;;;;;;4826225;29;20046;-86
2022/03/19 06:13:33;;;;;;;48.22;25.05;;;;;;;;;;4832532;29;20034;-85
2022/03/19 06:16:19;;;;;;;44.50;24.90;;;;;;;;;;4829615;29;20047;-85
2022/03/19 06:32:57;;;;;;;39.42;21.58;;;;;;;;;;4827008;29;20054;-86
2022/03/19 06:40:22;;;;;;;41.65;21.05;;;;;;;;;;4834317;29;20400;-84
2022/03/19 06:43:07;;;;;;;40.80;22.73;;;;;;;;;;4843647;29;20054;-86
2022/03/19 06:45:57;;;;;;;35.60;21.58;;;;;;;;;;4851529;29;20034;-85
2022/03/19 06:48:43;;;;;;;35.25;20.63;;;;;;;;;;4852786;29;20050;-85
2022/03/19 06:51:29;;;;;;;42.88;21.98;;;;;;;;;;4839023;29;20042;-84
2022/03/19 06:54:14;;;;;;;39.08;21.25;;;;;;;;;;4844840;29;20050;-86
2022/03/19 06:57:04;;;;;;;43.25;21.85;;;;;;;;;;4853057;29;20046;-84
2022/03/19 06:59:49;;;;;;;42.67;22.20;;;;;;;;;;4842447;29;20043;-84
2022/03/19 07:02:46;;;;;;;46.67;24.75;;;;;;;;;;4845261;29;20058;-85
2022/03/19 07:05:32;;;;;;;44.45;24.20;;;;;;;;;;4865372;29;20050;-84
2022/03/19 07:08:17;;;;;;;39.33;21.88;;;;;;;;;;4863924;29;20042;-84
2022/03/19 07:11:03;;;;;;;38.58;19.10;;;;;;;;;;4845704;29;20054;-84
2022/03/19 07:13:48;;;;;;;32.92;18.58;;;;;;;;;;4836722;29;20046;-84
2022/03/19 07:16:34;;;;;;;31.08;17.40;;;;;;;;;;4849977;29;20477;-85
2022/03/19 07:19:20;;;;;;;35.83;18.90;;;;;;;;;;4844302;29;20050;-84
2022/03/19 07:22:05;;;;;;;30.45;16.23;;;;;;;;;;4849502;29;20054;-85
2022/03/19 07:24:51;;;;;;;29.50;16.95;;;;;;;;;;4843841;29;20037;-85
2022/03/19 07:27:36;;;;;;;28.45;13.88;;;;;;;;;;4844807;29;20057;-85
2022/03/19 07:30:22;;;;;;;30.20;17.00;;;;;;;;;;4836717;29;20050;-86
2022/03/19 07:33:09;;;;;;;34.13;15.95;;;;;;;;;;4824019;29;20046;-86
2022/03/19 07:35:54;;;;;;;24.25;12.60;;;;;;;;;;4843681;29;20049;-86
2022/03/19 07:38:40;;;;;;;30.40;16.38;;;;;;;;;;4844040;29;20057;-86
2022/03/19 07:41:48;;;;;;;59.33;33.75;;;;;;;;;;4845336;29;20050;-85
2022/03/19 07:44:33;;;;;;;47.90;26.27;;;;;;;;;;4843798;29;20054;-84
2022/03/19 07:47:19;;;;;;;43.90;26.58;;;;;;;;;;4843763;29;20050;-84
2022/03/19 07:50:05;;;;;;;51.22;27.33;;;;;;;;;;4843731;29;20050;-85
2022/03/19 07:52:50;;;;;;;43.65;22.73;;;;;;;;;;4843422;29;20049;-85
2022/03/19 07:55:36;;;;;;;49.70;25.30;;;;;;;;;;4835832;29;20054;-86
2022/03/19 07:58:24;;;;;;;55.65;26.05;;;;;;;;;;4835972;29;20041;-86
2022/03/19 08:01:10;;;;;;;50.65;26.48;;;;;;;;;;4843853;29;20496;-84
2022/03/19 08:03:56;;;;;;;54.95;26.00;;;;;;;;;;4829561;29;20046;-85
2022/03/19 08:06:41;;;;;;;45.47;24.70;;;;;;;;;;4835835;29;20053;-83
2022/03/19 08:09:27;;;;;;;46.40;25.10;;;;;;;;;;4843322;29;20054;-83
2022/03/19 08:12:13;;;;;;;43.15;23.75;;;;;;;;;;4835421;29;20053;-83
2022/03/19 08:14:59;;;;;;;51.10;27.08;;;;;;;;;;4828922;29;20045;-83
2022/03/19 08:17:45;;;;;;;55.10;27.40;;;;;;;;;;4842238;29;20045;-83
2022/03/19 08:20:31;;;;;;;49.00;24.17;;;;;;;;;;4822847;29;20053;-83
2022/03/19 08:23:17;;;;;;;47.90;26.02;;;;;;;;;;4829562;29;20053;-82
2022/03/19 08:26:03;;;;;;;40.72;23.60;;;;;;;;;;4843953;29;20042;-83
2022/03/19 08:28:53;;;;;;;46.33;24.75;;;;;;;;;;4849130;29;20045;-83
2022/03/19 08:32:11;;;;;;;49.78;25.38;;;;;;;;;;4848183;29;20042;-83
2022/03/19 08:36:16;;;;;;;;;;;;;;;;;;;;;
2022/03/19 08:58:13;;;;;;;24.25;13.20;;;;;;;;;;4734254;30;20061;-82
2022/03/19 09:00:59;;;;;;;24.67;14.02;;;;;;;;;;4721305;30;20468;-75
2022/03/19 09:03:45;;;;;;;21.50;12.02;;;;;;;;;;4768897;30;20545;-76
2022/03/19 09:06:31;;;;;;;21.80;11.98;;;;;;;;;;4831819;29;20057;-76
2022/03/19 09:09:17;;;;;;;19.48;11.85;;;;;;;;;;4842727;29;20046;-74
2022/03/19 09:12:03;;;;;;;18.23;11.65;;;;;;;;;;4842343;29;20042;-76
2022/03/19 09:14:49;;;;;;;16.58;9.05;;;;;;;;;;4841887;29;20046;-75
2022/03/19 09:17:34;;;;;;;;;;;;;;;;;;4848600;29;20388;-74
2022/03/19 09:20:18;;;;;;;11.75;6.60;;;;;;;;;;4844160;23;19924;-75
2022/03/19 09:23:04;;;;;;;9.57;5.40;;;;;;;;;;4829891;29;20047;-75
2022/03/19 09:25:50;;;;;;;21.48;9.98;;;;;;;;;;4823665;29;20058;-74
2022/03/19 09:28:36;;;;;;;19.40;12.23;;;;;;;;;;4829838;29;20058;-72
2022/03/19 09:31:21;;;;;;;11.82;7.90;;;;;;;;;;4811078;29;20404;-74
2022/03/19 09:34:06;;;;;;;12.57;7.20;;;;;;;;;;4823782;29;20492;-75
2022/03/19 09:36:52;;;;;;;14.43;7.85;;;;;;;;;;4829845;29;20138;-75
2022/03/19 09:39:37;;;;;;;13.43;6.85;;;;;;;;;;4824208;29;20054;-74
2022/03/19 09:42:22;;;;;;;9.75;6.13;;;;;;;;;;4823275;29;20043;-74
2022/03/19 09:45:08;;;;;;;6.55;4.28;;;;;;;;;;4829961;29;20050;-74
2022/03/19 09:47:55;;;;;;;10.93;6.35;;;;;;;;;;4830324;29;20050;-75
2022/03/19 09:50:41;;;;;;;6.50;4.43;;;;;;;;;;4830396;29;20477;-75
2022/03/19 09:53:30;;;;;;;15.77;7.13;;;;;;;;;;4824073;29;20492;-76
2022/03/19 09:56:16;;;;;;;7.88;5.38;;;;;;;;;;4823608;29;20042;-75
2022/03/19 09:59:02;;;;;;;9.88;5.78;;;;;;;;;;4832394;29;20046;-75
2022/03/19 10:01:47;;;;;;;9.98;6.88;;;;;;;;;;4826214;29;20050;-75
2022/03/19 10:04:32;;;;;;;12.05;6.45;;;;;;;;;;4833388;29;20039;-75
2022/03/19 10:10:31;;;;;;;8.20;5.63;;;;;;;;;;4832536;29;20046;-74
2022/03/19 10:13:17;;;;;;;12.23;6.97;;;;;;;;;;4826023;29;20050;-74
2022/03/19 10:16:02;;;;;;;15.93;8.10;;;;;;;;;;4832619;29;20050;-75
2022/03/19 10:18:56;;;;;;;18.60;9.15;;;;;;;;;;4826704;29;20050;-74
2022/03/19 10:21:41;;;;;;;10.00;4.72;;;;;;;;;;4826211;29;20054;-73
2022/03/19 10:24:30;;;;;;;10.75;6.68;;;;;;;;;;4832739;29;20050;-74
2022/03/19 10:27:19;;;;;;;13.85;5.95;;;;;;;;;;4826614;29;20050;-75
2022/03/19 10:30:16;;;;;;;14.98;6.03;;;;;;;;;;4826430;29;20042;-74
2022/03/19 10:33:02;;;;;;;14.27;5.90;;;;;;;;;;4826483;29;20046;-74
2022/03/19 10:35:47;;;;;;;15.07;8.00;;;;;;;;;;4826864;29;20050;-74
2022/03/19 10:38:59;;;;;;;30.00;12.27;;;;;;;;;;4826425;29;20051;-73
2022/03/19 10:41:45;;;;;;;21.63;11.38;;;;;;;;;;4832916;29;20047;-74
2022/03/19 10:44:31;;;;;;;21.67;10.48;;;;;;;;;;4826628;29;20054;-74
2022/03/19 10:47:22;;;;;;;11.98;6.57;;;;;;;;;;4826486;29;20050;-74
2022/03/19 10:50:08;;;;;;;12.85;7.50;;;;;;;;;;4832443;29;20409;-75
2022/03/19 10:52:54;;;;;;;7.43;4.97;;;;;;;;;;4826556;29;20434;-76
2022/03/19 10:55:39;;;;;;;23.98;13.25;;;;;;;;;;4818678;29;20046;-75
2022/03/19 10:58:26;;;;;;;25.38;13.15;;;;;;;;;;4825499;29;20401;-73
2022/03/19 11:01:16;;;;;;;14.02;8.23;;;;;;;;;;4826119;29;20117;-75
2022/03/19 11:04:03;;;;;;;18.55;10.13;;;;;;;;;;4832345;29;20050;-75
2022/03/19 11:06:52;;;;;;;16.40;10.90;;;;;;;;;;4826200;29;20050;-75
2022/03/19 11:09:38;;;;;;;16.48;9.85;;;;;;;;;;4826237;29;20042;-74
2022/03/19 11:12:31;;;;;;;13.27;7.10;;;;;;;;;;4825987;29;20054;-74
2022/03/19 11:15:19;;;;;;;10.02;6.40;;;;;;;;;;4826167;29;20432;-76
2022/03/19 11:18:07;;;;;;;32.22;17.40;;;;;;;;;;4830086;29;20042;-76
2022/03/19 11:20:53;;;;;;;24.13;13.70;;;;;;;;;;4825370;29;20055;-73
2022/03/19 11:23:50;;;;;;;12.20;7.60;;;;;;;;;;4832295;29;20488;-73
2022/03/19 11:26:37;;;;;;;20.73;11.93;;;;;;;;;;4832023;29;20046;-74
2022/03/19 11:29:24;;;;;;;11.82;6.20;;;;;;;;;;4831889;29;20058;-74
2022/03/19 11:32:21;;;;;;;12.73;8.05;;;;;;;;;;4825436;29;20054;-74
2022/03/19 11:35:07;;;;;;;21.20;12.55;;;;;;;;;;4831166;29;20054;-75
2022/03/19 11:37:58;;;;;;;11.20;5.65;;;;;;;;;;4825624;29;20054;-74
2022/03/19 11:40:53;;;;;;;30.83;11.00;;;;;;;;;;4825221;29;20050;-74
2022/03/19 11:43:39;;;;;;;14.18;7.72;;;;;;;;;;4824622;29;20050;-74
2022/03/19 11:46:24;;;;;;;13.60;7.68;;;;;;;;;;4830182;29;20485;-74
2022/03/19 11:49:10;;;;;;;4.95;3.40;;;;;;;;;;4824774;29;20066;-74
2022/03/19 11:51:55;;;;;;;6.55;4.40;;;;;;;;;;4824390;29;20054;-74
2022/03/19 11:54:59;;;;;;;9.93;5.90;;;;;;;;;;4825039;29;20046;-74
2022/03/19 11:58:03;;;;;;;10.53;6.37;;;;;;;;;;4830987;29;20050;-74
2022/03/19 12:00:59;;;;;;;14.40;8.10;;;;;;;;;;4825559;29;20070;-75
2022/03/19 12:04:21;;;;;;;8.93;4.30;;;;;;;;;;4824880;29;20046;-72
2022/03/19 12:07:06;;;;;;;11.48;7.95;;;;;;;;;;4751582;30;20067;-74
2022/03/19 12:09:52;;;;;;;8.57;5.07;;;;;;;;;;4824844;29;20058;-74
2022/03/19 12:12:40;;;;;;;18.20;10.27;;;;;;;;;;4824753;29;20477;-74
2022/03/19 12:15:31;;;;;;;16.55;10.07;;;;;;;;;;4829627;29;20042;-75
2022/03/19 12:18:39;;;;;;;13.90;7.63;;;;;;;;;;4825244;29;20050;-75
2022/03/19 12:21:25;;;;;;;15.93;8.52;;;;;;;;;;4825218;29;20054;-76
2022/03/19 12:24:26;;;;;;;9.80;6.35;;;;;;;;;;4824904;29;20050;-77
2022/03/19 12:27:17;;;;;;;15.60;8.40;;;;;;;;;;4824764;29;20051;-77
2022/03/19 12:30:04;;;;;;;20.73;10.77;;;;;;;;;;4825171;29;20055;-77
2022/03/19 12:32:55;;;;;;;10.32;5.95;;;;;;;;;;4825613;29;20050;-78
2022/03/19 12:35:46;;;;;;;12.27;8.18;;;;;;;;;;4806833;29;20059;-78
2022/03/19 12:38:33;;;;;;;11.05;6.35;;;;;;;;;;4805990;29;20043;-77
2022/03/19 12:41:24;;;;;;;14.35;7.07;;;;;;;;;;4811946;29;20374;-78
2022/03/19 12:44:38;;;;;;;15.57;7.60;;;;;;;;;;4806789;29;20053;-76
2022/03/19 12:47:23;;;;;;;11.52;5.88;;;;;;;;;;4810398;29;20409;-76
2022/03/19 12:50:09;;;;;;;16.63;11.18;;;;;;;;;;4811035;29;20051;-77
2022/03/19 12:52:55;;;;;;;14.20;7.50;;;;;;;;;;4790861;29;20072;-76
2022/03/19 12:55:40;;;;;;;24.88;12.00;;;;;;;;;;4804619;29;20050;-77
2022/03/19 12:58:39;;;;;;;14.00;8.10;;;;;;;;;;4805040;29;20058;-76
2022/03/19 13:01:27;;;;;;;13.30;7.05;;;;;;;;;;4810681;29;20051;-77
2022/03/19 13:04:21;;;;;;;17.13;10.00;;;;;;;;;;4804482;29;20055;-76
2022/03/19 13:07:06;;;;;;;5.72;3.40;;;;;;;;;;4804753;29;20051;-76
2022/03/19 13:09:52;;;;;;;9.52;6.25;;;;;;;;;;4798367;29;20055;-76
2022/03/19 13:12:37;;;;;;;21.77;6.20;;;;;;;;;;4805797;29;20043;-77
2022/03/19 13:15:23;;;;;;;11.98;7.53;;;;;;;;;;4806080;29;20047;-76
2022/03/19 13:18:08;;;;;;;16.83;7.90;;;;;;;;;;4806249;29;20055;-77
2022/03/19 13:21:02;;;;;;;13.32;7.07;;;;;;;;;;4809766;29;20051;-77
2022/03/19 13:23:48;;;;;;;11.43;6.28;;;;;;;;;;4806336;29;20408;-77
2022/03/19 13:26:36;;;;;;;11.75;5.97;;;;;;;;;;4806250;29;20481;-76
2022/03/19 13:29:32;;;;;;;16.17;9.07;;;;;;;;;;4806249;29;20409;-76
2022/03/19 13:32:19;;;;;;;21.13;12.30;;;;;;;;;;4808851;29;20054;-77
2022/03/19 13:35:05;;;;;;;22.23;11.45;;;;;;;;;;4816390;29;20042;-77
2022/03/19 13:37:50;;;;;;;9.13;4.97;;;;;;;;;;4810629;29;20054;-77
2022/03/19 13:40:37;;;;;;;10.38;6.38;;;;;;;;;;4809880;29;20046;-74
2022/03/19 13:43:35;;;;;;;13.35;7.00;;;;;;;;;;4809661;29;20058;-74
2022/03/19 13:46:22;;;;;;;24.10;12.68;;;;;;;;;;4809735;29;20047;-75
2022/03/19 13:49:14;;;;;;;19.20;12.07;;;;;;;;;;4809530;29;20409;-74
2022/03/19 13:52:00;;;;;;;26.70;14.00;;;;;;;;;;4809382;29;20055;-74
2022/03/19 13:54:47;;;;;;;19.00;9.57;;;;;;;;;;4815917;29;20386;-74
2022/03/19 13:57:36;;;;;;;14.73;7.50;;;;;;;;;;4809172;29;20051;-74
2022/03/19 14:00:27;;;;;;;15.43;8.82;;;;;;;;;;4809766;29;20055;-74
2022/03/19 14:03:14;;;;;;;23.88;12.40;;;;;;;;;;4814887;29;20493;-74
2022/03/19 14:05:59;;;;;;;21.25;12.75;;;;;;;;;;4809644;29;20066;-74
2022/03/19 14:08:47;;;;;;;11.23;6.50;;;;;;;;;;4809479;29;20505;-75
2022/03/19 14:11:39;;;;;;;10.80;6.30;;;;;;;;;;4814981;29;20401;-75
2022/03/19 14:14:24;;;;;;;15.52;6.97;;;;;;;;;;4809297;29;20055;-74
2022/03/19 14:17:10;;;;;;;10.85;6.63;;;;;;;;;;4814812;29;20054;-74
2022/03/19 14:19:55;;;;;;;14.90;6.03;;;;;;;;;;4817455;24;20043;-75
2022/03/19 14:22:41;;;;;;;8.73;5.25;;;;;;;;;;4845332;29;20492;-74
2022/03/19 14:25:27;;;;;;;10.02;5.78;;;;;;;;;;4851577;29;20050;-74
2022/03/19 14:28:15;;;;;;;9.35;5.28;;;;;;;;;;4845371;29;20058;-74
2022/03/19 14:31:00;;;;;;;34.85;15.27;;;;;;;;;;4851538;29;20038;-74
2022/03/19 14:33:45;;;;;;;6.78;4.00;;;;;;;;;;4845208;29;20050;-74
2022/03/19 14:36:30;;;;;;;29.77;14.20;;;;;;;;;;4845162;29;20049;-75
2022/03/19 14:39:16;;;;;;;5.75;3.85;;;;;;;;;;4845042;29;20488;-74
2022/03/19 14:42:01;;;;;;;11.20;6.25;;;;;;;;;;4844737;29;20045;-73
2022/03/19 14:44:47;;;;;;;8.48;5.53;;;;;;;;;;4844513;29;20046;-75
2022/03/19 14:47:37;;;;;;;20.02;13.07;;;;;;;;;;4844929;29;20492;-73
2022/03/19 14:50:22;;;;;;;22.95;11.93;;;;;;;;;;4850872;29;20046;-73
2022/03/19 14:53:08;;;;;;;18.92;12.07;;;;;;;;;;4843640;29;20046;-73
2022/03/19 14:55:54;;;;;;;10.05;6.22;;;;;;;;;;4843347;29;20050;-74
2022/03/19 14:58:40;;;;;;;15.35;6.05;;;;;;;;;;4850844;29;20046;-75
2022/03/19 15:01:26;;;;;;;13.13;6.05;;;;;;;;;;4844772;29;20058;-73
2022/03/19 15:04:12;;;;;;;19.92;10.38;;;;;;;;;;4844839;29;20396;-73
2022/03/19 15:06:57;;;;;;;9.98;4.95;;;;;;;;;;4850522;29;20046;-76
2022/03/19 15:09:43;;;;;;;21.08;9.90;;;;;;;;;;4844535;29;20488;-73
2022/03/19 15:12:32;;;;;;;17.63;10.18;;;;;;;;;;4844453;29;20481;-73
2022/03/19 15:15:17;;;;;;;28.48;13.75;;;;;;;;;;4844298;29;20058;-75
2022/03/19 15:18:03;;;;;;;27.77;15.82;;;;;;;;;;4844608;29;20050;-73
2022/03/19 15:20:48;;;;;;;20.48;12.15;;;;;;;;;;4843957;29;20054;-74
2022/03/19 15:23:34;;;;;;;10.63;6.70;;;;;;;;;;4850601;29;20054;-74
2022/03/19 15:26:20;;;;;;;10.35;6.55;;;;;;;;;;4844033;29;20042;-75
2022/03/19 15:29:05;;;;;;;39.47;24.30;;;;;;;;;;4850064;29;20397;-75
2022/03/19 15:31:51;;;;;;;12.05;9.80;;;;;;;;;;4844156;29;20046;-75
2022/03/19 15:34:37;;;;;;;19.63;12.15;;;;;;;;;;4843964;29;20046;-74
2022/03/19 15:37:22;;;;;;;13.52;6.57;;;;;;;;;;4843868;29;20404;-74
2022/03/19 15:40:09;;;;;;;10.63;6.45;;;;;;;;;;4844317;29;20495;-74
2022/03/19 15:42:54;;;;;;;13.77;7.68;;;;;;;;;;4849845;29;20045;-73
2022/03/19 15:45:40;;;;;;;41.22;15.80;;;;;;;;;;4844047;29;20054;-73
2022/03/19 15:48:25;;;;;;;10.43;6.70;;;;;;;;;;4843696;29;20531;-74
2022/03/19 15:51:11;;;;;;;9.15;6.85;;;;;;;;;;4844089;29;20046;-73
2022/03/19 15:53:56;;;;;;;14.43;9.63;;;;;;;;;;4843746;29;20049;-73
2022/03/19 15:56:42;;;;;;;12.45;8.63;;;;;;;;;;4843042;29;20053;-73
2022/03/19 15:59:28;;;;;;;15.85;8.98;;;;;;;;;;4849801;29;20050;-72
2022/03/19 16:02:13;;;;;;;31.70;17.48;;;;;;;;;;4843974;29;20046;-75
2022/03/19 16:04:59;;;;;;;19.13;10.40;;;;;;;;;;4847879;29;20054;-76
2022/03/19 16:07:44;;;;;;;29.30;18.70;;;;;;;;;;4843684;29;20404;-75
2022/03/19 16:10:30;;;;;;;18.25;10.13;;;;;;;;;;4842955;29;20050;-76
2022/03/19 16:13:16;;;;;;;19.17;13.35;;;;;;;;;;4843355;29;20058;-74
2022/03/19 16:16:02;;;;;;;22.92;15.60;;;;;;;;;;4848231;29;20046;-74
2022/03/19 16:18:48;;;;;;;25.23;16.73;;;;;;;;;;4849119;29;20049;-74
2022/03/19 16:21:33;;;;;;;22.60;16.88;;;;;;;;;;4843192;29;20484;-74
2022/03/19 16:24:19;;;;;;;18.70;12.52;;;;;;;;;;4849385;29;20054;-76
2022/03/19 16:27:04;;;;;;;25.70;15.98;;;;;;;;;;4835704;29;20049;-74
2022/03/19 16:29:49;;;;;;;39.67;23.52;;;;;;;;;;4843365;29;20485;-75
2022/03/19 16:32:35;;;;;;;26.42;13.15;;;;;;;;;;4843163;29;20408;-76
2022/03/19 16:35:21;;;;;;;14.75;9.18;;;;;;;;;;4848133;29;20062;-75
2022/03/19 16:38:06;;;;;;;14.60;8.15;;;;;;;;;;4843197;29;20054;-74
2022/03/19 16:40:52;;;;;;;14.43;9.23;;;;;;;;;;4843300;29;20057;-74
2022/03/19 16:43:39;;;;;;;16.65;7.45;;;;;;;;;;4849017;29;20396;-73
2022/03/19 16:46:26;;;;;;;17.00;9.80;;;;;;;;;;4843023;29;20050;-74
2022/03/19 16:49:11;;;;;;;22.52;10.35;;;;;;;;;;4877221;24;20058;-73
2022/03/19 16:51:57;;;;;;;30.40;16.58;;;;;;;;;;4849333;29;20471;-74
2022/03/19 16:54:42;;;;;;;20.13;10.25;;;;;;;;;;4849126;29;20054;-74
2022/03/19 16:57:28;;;;;;;21.38;11.68;;;;;;;;;;4842679;29;20087;-74
2022/03/19 17:00:13;;;;;;;18.08;10.88;;;;;;;;;;4842922;29;20046;-73
2022/03/19 17:03:02;;;;;;;17.80;10.40;;;;;;;;;;4842849;29;20054;-74
2022/03/19 17:05:49;;;;;;;19.77;10.30;;;;;;;;;;4843045;29;20509;-73
2022/03/19 17:08:34;;;;;;;10.93;6.90;;;;;;;;;;4853354;29;20046;-75
2022/03/19 17:11:20;;;;;;;17.67;9.27;;;;;;;;;;4839287;29;20046;-75
2022/03/19 17:14:05;;;;;;;17.52;7.93;;;;;;;;;;4846215;29;20054;-74
2022/03/19 17:17:28;;;;;;;19.38;9.95;;;;;;;;;;4847686;29;20050;-83
2022/03/19 17:21:43;;;;;;;26.50;13.90;;;;;;;;;;4810920;29;20041;-82
2022/03/19 17:26:01;;;;;;;12.68;7.05;;;;;;;;;;4828573;29;20532;-84
2022/03/19 17:38:45;;;;;;;48.53;27.30;;;;;;;;;;4738186;30;20048;-85
2022/03/19 17:42:04;;;;;;;40.22;23.63;;;;;;;;;;4722077;30;20058;-86
2022/03/19 17:44:53;;;;;;;31.70;14.65;;;;;;;;;;4724467;30;20069;-87
2022/03/19 17:47:40;;;;;;;31.95;14.68;;;;;;;;;;4766001;29;20108;-86
2022/03/19 17:50:25;;;;;;;33.08;19.83;;;;;;;;;;4838684;29;20392;-85
2022/03/19 17:53:12;;;;;;;20.20;11.30;;;;;;;;;;4846492;29;20054;-84
2022/03/19 17:55:58;;;;;;;24.42;13.55;;;;;;;;;;4825679;29;20046;-85
2022/03/19 17:58:44;;;;;;;17.05;10.43;;;;;;;;;;4838339;29;20054;-86
2022/03/19 18:01:29;;;;;;;22.95;11.65;;;;;;;;;;4838252;29;20050;-86
2022/03/19 18:04:15;;;;;;;27.63;15.55;;;;;;;;;;4832119;29;20046;-86
2022/03/19 18:07:01;;;;;;;28.45;16.95;;;;;;;;;;4847206;29;20038;-87
2022/03/19 18:09:46;;;;;;;46.88;23.25;;;;;;;;;;4831742;29;20045;-86
2022/03/19 18:12:32;;;;;;;25.85;15.98;;;;;;;;;;4845537;29;20061;-86
2022/03/19 18:15:17;;;;;;;35.65;20.50;;;;;;;;;;4837707;29;20049;-87
2022/03/19 18:18:03;;;;;;;31.52;17.88;;;;;;;;;;4844106;29;20459;-85
2022/03/19 18:20:50;;;;;;;16.90;9.88;;;;;;;;;;4825592;29;20050;-85
2022/03/19 18:23:36;;;;;;;20.65;12.60;;;;;;;;;;4845282;29;20054;-88
2022/03/19 18:26:21;;;;;;;25.17;17.10;;;;;;;;;;4824973;29;20054;-86
2022/03/19 18:29:07;;;;;;;17.63;10.38;;;;;;;;;;4825034;29;20477;-86
2022/03/19 18:32:44;;;;;;;20.95;12.88;;;;;;;;;;4832064;29;20050;-88
2022/03/19 18:35:51;;;;;;;18.50;10.20;;;;;;;;;;4832755;24;20050;-87
2022/03/19 18:38:36;;;;;;;21.90;11.73;;;;;;;;;;4831809;29;20046;-89
2022/03/19 18:41:22;;;;;;;23.00;13.73;;;;;;;;;;4844702;29;20037;-87
2022/03/19 18:44:07;;;;;;;12.48;7.18;;;;;;;;;;4831320;29;20050;-87
2022/03/19 18:46:54;;;;;;;22.35;13.25;;;;;;;;;;4845368;29;20054;-87
2022/03/19 18:49:39;;;;;;;25.00;13.45;;;;;;;;;;4831244;29;20054;-87
2022/03/19 18:52:24;;;;;;;24.05;13.30;;;;;;;;;;4850527;29;20042;-88
2022/03/19 18:55:12;;;;;;;19.70;10.27;;;;;;;;;;4837407;29;20049;-87
2022/03/19 18:57:57;;;;;;;21.55;8.95;;;;;;;;;;4830975;29;20054;-87
2022/03/19 19:00:42;;;;;;;15.55;9.52;;;;;;;;;;4837526;29;20481;-87
2022/03/19 19:03:29;;;;;;;13.55;8.60;;;;;;;;;;4837151;29;20046;-86
2022/03/19 19:06:15;;;;;;;17.35;9.98;;;;;;;;;;4836636;29;20390;-85
2022/03/19 19:09:00;;;;;;;19.67;11.55;;;;;;;;;;4837673;29;20041;-87
2022/03/19 19:11:46;;;;;;;12.90;8.30;;;;;;;;;;4836847;29;20049;-84
2022/03/19 19:14:31;;;;;;;12.38;7.38;;;;;;;;;;4844891;29;20046;-87
2022/03/19 19:17:17;;;;;;;11.05;6.68;;;;;;;;;;4849617;29;20050;-85
2022/03/19 19:20:04;;;;;;;14.70;8.95;;;;;;;;;;4844451;29;20046;-87
2022/03/19 19:22:50;;;;;;;11.70;7.35;;;;;;;;;;4843776;29;20481;-87
2022/03/19 19:25:36;;;;;;;24.40;13.52;;;;;;;;;;4836483;29;20041;-86
2022/03/19 19:28:21;;;;;;;35.03;21.08;;;;;;;;;;4843821;29;20046;-88
2022/03/19 19:31:09;;;;;;;48.20;24.83;;;;;;;;;;4830454;29;20405;-87
2022/03/19 19:33:54;;;;;;;33.67;19.83;;;;;;;;;;4844066;29;20050;-86
2022/03/19 19:36:40;;;;;;;30.20;16.02;;;;;;;;;;4844807;29;20490;-85
2022/03/19 19:39:27;;;;;;;20.77;11.20;;;;;;;;;;4836419;29;20140;-85
2022/03/19 19:42:13;;;;;;;22.60;13.20;;;;;;;;;;4844655;29;20054;-85
2022/03/19 19:45:03;;;;;;;23.85;11.77;;;;;;;;;;4849584;29;20478;-85
2022/03/19 19:47:48;;;;;;;26.10;14.48;;;;;;;;;;4817271;29;20046;-85
2022/03/19 19:50:34;;;;;;;17.35;9.30;;;;;;;;;;4844643;29;20033;-85
2022/03/19 19:53:21;;;;;;;20.02;11.50;;;;;;;;;;4844410;29;20042;-86
2022/03/19 19:56:06;;;;;;;23.73;12.15;;;;;;;;;;4842125;29;20038;-86
2022/03/19 19:58:51;;;;;;;14.32;8.68;;;;;;;;;;4829572;29;20475;-85
2022/03/19 20:01:38;;;;;;;32.58;13.40;;;;;;;;;;4834170;29;20102;-85
2022/03/19 20:04:23;;;;;;;22.83;12.55;;;;;;;;;;4832003;29;20386;-84
2022/03/19 20:10:15;;;;;;;69.93;28.33;;;;;;;;;;4834609;29;20042;-87
2022/03/19 20:13:03;;;;;;;26.10;13.75;;;;;;;;;;4818098;29;20054;-86
2022/03/19 20:15:48;;;;;;;26.88;14.73;;;;;;;;;;4829293;29;20046;-88
2022/03/19 20:18:33;;;;;;;25.67;15.73;;;;;;;;;;4838700;29;20034;-88
2022/03/19 20:21:18;;;;;;;28.42;15.63;;;;;;;;;;4834996;29;20042;-85
2022/03/19 20:24:08;;;;;;;29.95;16.88;;;;;;;;;;4823975;29;20037;-85
2022/03/19 20:26:53;;;;;;;33.60;19.58;;;;;;;;;;4829181;29;20050;-86
2022/03/19 20:29:39;;;;;;;32.95;17.42;;;;;;;;;;4822530;29;20038;-87
2022/03/19 20:32:25;;;;;;;30.63;16.55;;;;;;;;;;4816287;29;20042;-86
2022/03/19 20:35:13;;;;;;;28.52;14.38;;;;;;;;;;4827523;29;20062;-85
2022/03/19 20:38:02;;;;;;;14.07;8.45;;;;;;;;;;4824270;29;20047;-87
2022/03/19 20:40:47;;;;;;;12.98;7.53;;;;;;;;;;4834043;29;20058;-85
2022/03/19 20:43:33;;;;;;;15.23;8.02;;;;;;;;;;4840283;29;20062;-85
2022/03/19 20:46:19;;;;;;;21.52;11.93;;;;;;;;;;4825602;29;20046;-87
2022/03/19 20:50:13;;;;;;;14.10;8.35;;;;;;;;;;4824852;29;20046;-84
2022/03/19 20:52:10;;;;;;;15.70;8.23;;;;;;;;;;4818966;29;20485;-85
2022/03/19 20:54:56;;;;;;;21.60;12.63;;;;;;;;;;4833899;29;20042;-86
2022/03/19 20:57:42;;;;;;;24.73;12.05;;;;;;;;;;4833778;29;20046;-84
2022/03/19 21:00:31;;;;;;;22.30;12.70;;;;;;;;;;4842046;29;20046;-84
2022/03/19 21:03:17;;;;;;;26.48;12.93;;;;;;;;;;4835428;29;20386;-84
2022/03/19 21:06:03;;;;;;;16.75;9.48;;;;;;;;;;4829402;29;20050;-86